createdAt,value
2022-12-27T00:01:43.533Z,2.28
2022-12-27T00:03:43.442Z,2.34
2022-12-27T00:05:43.463Z,2.33
2022-12-27T00:07:43.472Z,2.31
2022-12-27T00:09:43.440Z,2.24
2022-12-27T00:12:13.866Z,2.17
2022-12-27T00:14:13.878Z,2.2
2022-12-27T00:16:13.865Z,2.15
2022-12-27T00:18:13.836Z,2.16
2022-12-27T00:20:13.889Z,2.28
2022-12-27T00:22:13.870Z,2.29
2022-12-27T00:24:13.837Z,2.2
2022-12-27T00:28:08.601Z,2.23
2022-12-27T00:30:08.561Z,2.16
2022-12-27T00:32:08.561Z,2.27
2022-12-27T00:34:08.572Z,2.19
2022-12-27T00:36:08.577Z,2.11
2022-12-27T00:38:08.692Z,2.02
2022-12-27T00:40:08.547Z,2.05
2022-12-27T00:42:20.211Z,2.19
2022-12-27T00:44:20.260Z,2.08
2022-12-27T00:46:20.184Z,1.97
2022-12-27T00:48:20.251Z,2.04
2022-12-27T00:50:20.240Z,2.09
2022-12-27T00:52:20.194Z,2.08
2022-12-27T00:54:20.216Z,2
2022-12-27T00:56:20.270Z,2.02
2022-12-27T00:57:53.517Z,2.07
2022-12-27T00:59:52.583Z,2.03
2022-12-27T01:01:52.678Z,1.87
2022-12-27T01:03:52.556Z,1.84
2022-12-27T01:05:52.545Z,1.84
2022-12-27T01:07:52.513Z,1.91
2022-12-27T01:09:52.868Z,1.94
2022-12-27T01:13:01.547Z,1.68
2022-12-27T01:15:01.527Z,1.73
2022-12-27T01:17:01.587Z,1.84
2022-12-27T01:19:01.544Z,1.85
2022-12-27T01:21:01.522Z,1.81
2022-12-27T01:23:01.515Z,1.81
2022-12-27T01:25:01.543Z,1.87
2022-12-27T01:28:27.330Z,1.87
2022-12-27T01:30:27.386Z,1.82
2022-12-27T01:32:27.320Z,1.83
2022-12-27T01:34:27.343Z,1.91
2022-12-27T01:36:27.310Z,1.91
2022-12-27T01:38:27.313Z,1.86
2022-12-27T01:40:27.367Z,1.92
2022-12-27T01:43:38.303Z,1.75
2022-12-27T01:45:38.283Z,1.67
2022-12-27T01:47:38.244Z,1.7
2022-12-27T01:49:38.241Z,1.82
2022-12-27T01:51:38.277Z,1.85
2022-12-27T01:53:38.229Z,1.86
2022-12-27T01:55:38.251Z,1.88
2022-12-27T01:58:47.519Z,1.83
2022-12-27T02:00:47.614Z,1.82
2022-12-27T02:02:47.626Z,1.9
2022-12-27T02:04:47.513Z,1.85
2022-12-27T02:06:47.543Z,1.76
2022-12-27T02:08:47.507Z,1.77
2022-12-27T02:10:47.534Z,1.78
2022-12-27T02:13:37.985Z,1.79
2022-12-27T02:15:38.024Z,1.84
2022-12-27T02:17:37.965Z,1.92
2022-12-27T02:19:37.965Z,1.86
2022-12-27T02:21:37.999Z,1.83
2022-12-27T02:23:39.795Z,1.72
2022-12-27T02:25:37.988Z,1.58
2022-12-27T02:29:25.921Z,1.76
2022-12-27T02:31:25.872Z,1.74
2022-12-27T02:33:25.878Z,1.68
2022-12-27T02:35:25.923Z,1.64
2022-12-27T02:37:25.938Z,1.68
2022-12-27T02:39:25.910Z,1.63
2022-12-27T02:41:25.897Z,1.4
2022-12-27T02:44:21.465Z,1.43
2022-12-27T02:46:22.090Z,1.29
2022-12-27T02:48:21.537Z,1.32
2022-12-27T02:50:21.485Z,1.44
2022-12-27T02:52:21.480Z,1.51
2022-12-27T02:54:21.719Z,1.57
2022-12-27T02:56:21.466Z,1.5
2022-12-27T02:59:27.874Z,1.34
2022-12-27T03:01:27.952Z,1.44
2022-12-27T03:03:27.817Z,1.54
2022-12-27T03:05:27.847Z,1.44
2022-12-27T03:07:27.914Z,1.37
2022-12-27T03:09:27.856Z,1.41
2022-12-27T03:11:27.923Z,1.36
2022-12-27T03:14:54.956Z,1.46
2022-12-27T03:16:54.942Z,1.49
2022-12-27T03:18:54.900Z,1.47
2022-12-27T03:20:54.913Z,1.4
2022-12-27T03:22:54.929Z,1.38
2022-12-27T03:24:54.919Z,1.34
2022-12-27T03:26:54.960Z,1.33
2022-12-27T03:29:25.667Z,1.27
2022-12-27T03:31:25.706Z,1.24
2022-12-27T03:33:25.698Z,1.26
2022-12-27T03:35:25.704Z,0.85
2022-12-27T03:37:25.652Z,0.64
2022-12-27T03:39:25.724Z,0.8
2022-12-27T03:41:25.662Z,1
2022-12-27T03:44:44.282Z,1
2022-12-27T03:46:44.335Z,1.12
2022-12-27T03:48:44.265Z,1.15
2022-12-27T03:50:44.283Z,0.92
2022-12-27T03:52:44.244Z,1.05
2022-12-27T03:54:44.299Z,1.04
2022-12-27T03:56:44.255Z,1.05
2022-12-27T04:00:22.999Z,1.16
2022-12-27T04:02:23.190Z,1.11
2022-12-27T04:04:23.028Z,1.07
2022-12-27T04:06:23.014Z,1.07
2022-12-27T04:08:23.025Z,1.09
2022-12-27T04:10:23.009Z,1.13
2022-12-27T04:12:23.045Z,1.13
2022-12-27T04:15:01.110Z,0.85
2022-12-27T04:17:01.097Z,0.78
2022-12-27T04:19:01.136Z,0.83
2022-12-27T04:21:01.103Z,0.86
2022-12-27T04:23:01.069Z,1.01
2022-12-27T04:25:01.092Z,1
2022-12-27T04:27:01.080Z,0.99
2022-12-27T04:30:20.872Z,1.04
2022-12-27T04:32:20.838Z,0.99
2022-12-27T04:34:20.913Z,1.04
2022-12-27T04:36:20.883Z,0.92
2022-12-27T04:38:20.847Z,0.98
2022-12-27T04:40:20.856Z,0.95
2022-12-27T04:42:20.855Z,0.92
2022-12-27T04:45:15.349Z,0.97
2022-12-27T04:47:12.172Z,0.91
2022-12-27T04:49:12.479Z,0.91
2022-12-27T04:51:12.312Z,0.86
2022-12-27T04:53:12.174Z,0.93
2022-12-27T04:55:12.208Z,1.01
2022-12-27T04:57:12.137Z,0.84
2022-12-27T05:00:08.758Z,0.86
2022-12-27T05:02:08.787Z,0.61
2022-12-27T05:04:08.654Z,0.77
2022-12-27T05:06:08.704Z,0.78
2022-12-27T05:08:08.667Z,0.73
2022-12-27T05:10:08.682Z,0.84
2022-12-27T05:12:08.661Z,0.74
2022-12-27T05:14:08.622Z,0.81
2022-12-27T05:16:09.310Z,0.87
2022-12-27T05:18:09.297Z,0.88
2022-12-27T05:20:09.318Z,0.83
2022-12-27T05:22:09.293Z,0.66
2022-12-27T05:24:09.304Z,0.72
2022-12-27T05:26:09.362Z,0.82
2022-12-27T05:28:09.283Z,0.89
2022-12-27T05:31:15.966Z,0.93
2022-12-27T05:33:15.881Z,0.74
2022-12-27T05:35:15.883Z,0.79
2022-12-27T05:37:15.936Z,0.72
2022-12-27T05:39:15.870Z,0.73
2022-12-27T05:41:16.155Z,0.74
2022-12-27T05:43:15.894Z,0.57
2022-12-27T05:45:56.848Z,0.44
2022-12-27T05:47:56.830Z,0.41
2022-12-27T05:49:56.672Z,0.65
2022-12-27T05:51:56.961Z,0.66
2022-12-27T05:53:56.844Z,0.66
2022-12-27T05:55:56.717Z,0.73
2022-12-27T05:57:56.719Z,0.73
2022-12-27T06:01:23.643Z,0.63
2022-12-27T06:03:23.758Z,0.68
2022-12-27T06:05:23.544Z,0.8
2022-12-27T06:07:23.503Z,0.85
2022-12-27T06:09:23.501Z,0.74
2022-12-27T06:11:23.550Z,0.89
2022-12-27T06:13:23.532Z,0.91
2022-12-27T06:16:06.658Z,1.03
2022-12-27T06:18:06.600Z,0.9
2022-12-27T06:20:06.600Z,0.89
2022-12-27T06:22:06.635Z,0.87
2022-12-27T06:24:06.636Z,1.04
2022-12-27T06:26:06.687Z,1.13
2022-12-27T06:28:06.569Z,1.19
2022-12-27T06:30:06.669Z,1.24
2022-12-27T06:31:49.382Z,1.13
2022-12-27T06:33:49.516Z,1
2022-12-27T06:35:49.340Z,1.16
2022-12-27T06:37:49.423Z,1.19
2022-12-27T06:39:49.322Z,1.23
2022-12-27T06:41:49.331Z,1.31
2022-12-27T06:43:49.356Z,1.24
2022-12-27T06:46:37.725Z,1.11
2022-12-27T06:48:37.680Z,1.32
2022-12-27T06:50:37.455Z,1.11
2022-12-27T06:52:37.460Z,1.21
2022-12-27T06:54:37.459Z,1.36
2022-12-27T06:56:37.509Z,1.45
2022-12-27T06:58:37.510Z,1.39
2022-12-27T07:02:07.127Z,1.45
2022-12-27T07:04:06.958Z,1.3
2022-12-27T07:06:06.980Z,1.22
2022-12-27T07:08:06.976Z,1.4
2022-12-27T07:10:06.944Z,1.06
2022-12-27T07:12:06.940Z,1.33
2022-12-27T07:14:07.066Z,1.82
2022-12-27T07:17:37.938Z,1.9
2022-12-27T07:19:37.907Z,2.06
2022-12-27T07:21:38.088Z,2.45
2022-12-27T07:23:37.830Z,2.48
2022-12-27T07:25:37.999Z,2.57
2022-12-27T07:27:37.843Z,2.53
2022-12-27T07:29:42.026Z,2.39
2022-12-27T07:32:05.713Z,2.65
2022-12-27T07:34:05.643Z,2.88
2022-12-27T07:36:05.599Z,2.38
2022-12-27T07:38:05.587Z,2.43
2022-12-27T07:40:05.579Z,2.22
2022-12-27T07:42:08.300Z,2.33
2022-12-27T07:44:05.780Z,2.47
2022-12-27T07:47:17.270Z,2.78
2022-12-27T07:49:18.173Z,3
2022-12-27T07:51:17.269Z,3.37
2022-12-27T07:53:17.244Z,3.68
2022-12-27T07:55:17.261Z,3.96
2022-12-27T07:57:17.240Z,4.04
2022-12-27T07:59:17.282Z,4.06
2022-12-27T08:02:24.403Z,3.86
2022-12-27T08:04:24.416Z,3.12
2022-12-27T08:06:24.341Z,3.35
2022-12-27T08:08:24.321Z,3.38
2022-12-27T08:10:24.300Z,3.04
2022-12-27T08:12:24.306Z,3.22
2022-12-27T08:14:24.282Z,3.2
2022-12-27T08:17:25.942Z,3.14
2022-12-27T08:19:25.934Z,3.14
2022-12-27T08:21:26.045Z,3.56
2022-12-27T08:23:25.968Z,3.98
2022-12-27T08:25:25.893Z,4.08
2022-12-27T08:27:25.907Z,4.08
2022-12-27T08:29:26.173Z,3.64
2022-12-27T08:31:25.918Z,3.6
2022-12-27T08:32:53.641Z,3.58
2022-12-27T08:34:53.580Z,3.5
2022-12-27T08:36:55.463Z,3.56
2022-12-27T08:38:53.714Z,3.43
2022-12-27T08:40:53.624Z,3.67
2022-12-27T08:42:53.587Z,3.6
2022-12-27T08:44:53.588Z,4.18
2022-12-27T08:48:39.506Z,3.86
2022-12-27T08:50:39.580Z,3.83
2022-12-27T08:52:39.433Z,3.58
2022-12-27T08:54:39.433Z,3.41
2022-12-27T08:56:39.445Z,3.8
2022-12-27T08:58:39.378Z,4.3
2022-12-27T09:00:39.442Z,4.42
2022-12-27T09:02:52.714Z,4.42
2022-12-27T09:04:52.664Z,4.09
2022-12-27T09:06:52.673Z,3.74
2022-12-27T09:08:52.870Z,4.25
2022-12-27T09:10:52.673Z,4.38
2022-12-27T09:12:52.671Z,4.73
2022-12-27T09:14:52.681Z,4.81
2022-12-27T09:16:52.670Z,4.94
2022-12-27T09:18:46.298Z,5.2
2022-12-27T09:20:46.300Z,5.35
2022-12-27T09:22:46.282Z,5.29
2022-12-27T09:24:46.409Z,4.91
2022-12-27T09:26:46.269Z,4.99
2022-12-27T09:28:46.298Z,5.39
2022-12-27T09:30:46.318Z,5.74
2022-12-27T09:33:39.777Z,5.49
2022-12-27T09:35:39.743Z,5.48
2022-12-27T09:37:39.744Z,5.61
2022-12-27T09:39:39.708Z,5.76
2022-12-27T09:43:39.782Z,5.59
2022-12-27T09:45:39.716Z,5.64
2022-12-27T09:48:33.834Z,5.88
2022-12-27T09:50:33.721Z,6.14
2022-12-27T09:52:33.694Z,6.06
2022-12-27T09:54:33.712Z,6.29
2022-12-27T09:56:54.327Z,6.37
2022-12-27T09:58:33.716Z,6.43
2022-12-27T10:00:34.970Z,6.5
2022-12-27T10:03:48.098Z,6.35
2022-12-27T10:05:49.844Z,6.66
2022-12-27T10:07:47.532Z,6.95
2022-12-27T10:09:47.535Z,7.36
2022-12-27T10:11:47.524Z,7.56
2022-12-27T10:13:47.550Z,7.27
2022-12-27T10:15:47.581Z,7.26
2022-12-27T10:18:40.257Z,7.39
2022-12-27T10:20:40.304Z,7.46
2022-12-27T10:22:40.258Z,7.38
2022-12-27T10:24:40.237Z,7.5
2022-12-27T10:26:40.260Z,7.62
2022-12-27T10:28:40.280Z,7.62
2022-12-27T10:30:40.267Z,7.77
2022-12-27T10:32:40.241Z,7.76
2022-12-27T10:33:55.843Z,8.04
2022-12-27T10:35:55.855Z,8.4
2022-12-27T10:37:55.837Z,7.99
2022-12-27T10:39:55.836Z,7.96
2022-12-27T10:41:55.888Z,8.31
2022-12-27T10:43:55.846Z,8.74
2022-12-27T10:45:55.859Z,8.71
2022-12-27T10:47:55.823Z,8.34
2022-12-27T10:49:22.687Z,8.5
2022-12-27T10:51:22.598Z,8.59
2022-12-27T10:53:22.549Z,8.9
2022-12-27T10:55:22.567Z,8.57
2022-12-27T10:57:22.550Z,8.27
2022-12-27T10:59:22.626Z,8.71
2022-12-27T11:01:22.608Z,8.83
2022-12-27T11:05:00.116Z,8.65
2022-12-27T11:07:00.169Z,8.77
2022-12-27T11:09:00.051Z,9.02
2022-12-27T11:11:00.041Z,9.01
2022-12-27T11:13:00.047Z,9.16
2022-12-27T11:15:00.045Z,9.2
2022-12-27T11:17:00.103Z,8.66
2022-12-27T11:19:40.411Z,8.96
2022-12-27T11:21:40.399Z,9.41
2022-12-27T11:23:40.437Z,9.88
2022-12-27T11:25:40.418Z,10.3
2022-12-27T11:27:40.405Z,10.63
2022-12-27T11:29:40.387Z,10.52
2022-12-27T11:31:40.444Z,10.65
2022-12-27T11:35:03.753Z,10.38
2022-12-27T11:37:03.657Z,10
2022-12-27T11:39:03.708Z,10.08
2022-12-27T11:41:03.677Z,10.14
2022-12-27T11:43:03.641Z,10.52
2022-12-27T11:45:03.693Z,10.77
2022-12-27T11:47:03.767Z,11.32
2022-12-27T11:49:43.896Z,11.6
2022-12-27T11:51:43.924Z,11.64
2022-12-27T11:53:43.885Z,11.93
2022-12-27T11:55:43.887Z,12.11
2022-12-27T11:57:43.910Z,12.06
2022-12-27T11:59:44.001Z,11.73
2022-12-27T12:01:44.084Z,11.66
2022-12-27T12:03:43.928Z,11.82
2022-12-27T12:05:22.273Z,11.83
2022-12-27T12:07:22.301Z,11.77
2022-12-27T12:09:22.291Z,11.82
2022-12-27T12:11:22.268Z,11.87
2022-12-27T12:13:22.315Z,11.65
2022-12-27T12:15:22.233Z,11.32
2022-12-27T12:17:22.242Z,11.3
2022-12-27T12:20:43.238Z,11.29
2022-12-27T12:22:40.728Z,11.41
2022-12-27T12:24:40.743Z,11.62
2022-12-27T12:26:40.696Z,11.64
2022-12-27T12:28:57.980Z,11.62
2022-12-27T12:30:40.686Z,11.71
2022-12-27T12:32:40.680Z,11.35
2022-12-27T12:35:16.663Z,11.51
2022-12-27T12:37:16.615Z,11.63
2022-12-27T12:39:16.636Z,11.67
2022-12-27T12:41:16.597Z,11.7
2022-12-27T12:43:16.610Z,11.5
2022-12-27T12:45:16.671Z,11.17
2022-12-27T12:47:16.684Z,11.21
2022-12-27T12:49:16.663Z,11.53
2022-12-27T12:51:03.220Z,11.93
2022-12-27T12:53:03.194Z,11.66
2022-12-27T12:55:03.285Z,11.28
2022-12-27T12:57:03.239Z,11.55
2022-12-27T12:59:03.195Z,11.81
2022-12-27T13:01:03.254Z,11.9
2022-12-27T13:03:03.369Z,12
2022-12-27T13:06:10.283Z,12.12
2022-12-27T13:08:10.304Z,12.15
2022-12-27T13:10:10.550Z,12.3
2022-12-27T13:12:10.400Z,12.09
2022-12-27T13:14:10.308Z,12.05
2022-12-27T13:16:10.309Z,12
2022-12-27T13:18:10.782Z,12.02
2022-12-27T13:21:26.482Z,12.2
2022-12-27T13:23:25.942Z,12.24
2022-12-27T13:25:25.936Z,12.18
2022-12-27T13:27:25.975Z,12.11
2022-12-27T13:29:25.934Z,11.99
2022-12-27T13:31:25.910Z,11.97
2022-12-27T13:33:25.966Z,11.95
2022-12-27T13:36:33.789Z,11.79
2022-12-27T13:38:33.839Z,11.71
2022-12-27T13:40:33.826Z,11.61
2022-12-27T13:42:33.799Z,11.5
2022-12-27T13:44:33.809Z,11.4
2022-12-27T13:46:38.234Z,11.25
2022-12-27T13:48:33.821Z,11.22
2022-12-27T13:51:43.718Z,11.2
2022-12-27T13:53:43.699Z,11.05
2022-12-27T13:55:43.774Z,10.96
2022-12-27T13:57:43.704Z,11.01
2022-12-27T13:59:43.707Z,11.01
2022-12-27T14:01:43.844Z,11.03
2022-12-27T14:03:43.714Z,11.04
2022-12-27T14:06:55.528Z,11
2022-12-27T14:08:55.540Z,11.07
2022-12-27T14:11:00.676Z,11.02
2022-12-27T14:12:55.561Z,11.09
2022-12-27T14:14:55.517Z,11.1
2022-12-27T14:16:59.319Z,10.91
2022-12-27T14:18:55.713Z,10.9
2022-12-27T14:22:14.319Z,10.76
2022-12-27T14:24:14.307Z,10.7
2022-12-27T14:26:14.090Z,10.62
2022-12-27T14:28:14.070Z,10.58
2022-12-27T14:30:15.115Z,10.55
2022-12-27T14:32:14.033Z,10.54
2022-12-27T14:34:14.048Z,10.5
2022-12-27T14:37:19.977Z,10.47
2022-12-27T14:39:20.033Z,10.45
2022-12-27T14:41:20.081Z,10.41
2022-12-27T14:43:19.982Z,10.31
2022-12-27T14:45:20.028Z,10.13
2022-12-27T14:47:19.975Z,9.9
2022-12-27T14:49:20.044Z,9.89
2022-12-27T14:52:04.665Z,9.87
2022-12-27T14:53:45.706Z,9.77
2022-12-27T14:55:45.702Z,9.76
2022-12-27T14:57:45.754Z,9.74
2022-12-27T14:59:45.820Z,9.66
2022-12-27T15:01:45.732Z,9.66
2022-12-27T15:03:45.748Z,9.73
2022-12-27T15:07:17.912Z,9.67
2022-12-27T15:09:17.903Z,9.55
2022-12-27T15:11:17.916Z,9.67
2022-12-27T15:13:17.911Z,9.57
2022-12-27T15:15:17.886Z,9.53
2022-12-27T15:17:17.893Z,9.57
2022-12-27T15:19:17.917Z,9.42
2022-12-27T15:22:12.701Z,9.43
2022-12-27T15:24:12.697Z,9.45
2022-12-27T15:26:12.695Z,9.46
2022-12-27T15:28:12.602Z,9.49
2022-12-27T15:30:12.631Z,9.41
2022-12-27T15:32:12.660Z,9.42
2022-12-27T15:34:12.652Z,9.26
2022-12-27T15:37:15.103Z,9.05
2022-12-27T15:39:15.114Z,9.02
2022-12-27T15:41:15.135Z,9.05
2022-12-27T15:43:15.105Z,8.96
2022-12-27T15:45:15.133Z,8.95
2022-12-27T15:47:15.130Z,8.95
2022-12-27T15:49:15.153Z,8.84
2022-12-27T15:51:15.202Z,8.9
2022-12-27T15:53:03.628Z,8.93
2022-12-27T15:55:03.628Z,8.89
2022-12-27T15:57:03.713Z,8.9
2022-12-27T15:59:03.629Z,9
2022-12-27T16:01:03.680Z,8.89
2022-12-27T16:03:03.856Z,8.89
2022-12-27T16:05:03.606Z,8.88
2022-12-27T16:08:01.308Z,8.84
2022-12-27T16:10:01.243Z,8.79
2022-12-27T16:12:01.245Z,8.74
2022-12-27T16:14:01.248Z,8.67
2022-12-27T16:16:01.391Z,8.55
2022-12-27T16:18:01.494Z,8.54
2022-12-27T16:20:01.216Z,8.5
2022-12-27T16:23:21.952Z,8.47
2022-12-27T16:25:25.454Z,8.44
2022-12-27T16:27:21.857Z,8.36
2022-12-27T16:29:21.878Z,8.4
2022-12-27T16:31:21.920Z,8.33
2022-12-27T16:33:22.038Z,8.31
2022-12-27T16:35:21.848Z,8.26
2022-12-27T16:38:15.664Z,8.21
2022-12-27T16:40:15.662Z,8.16
2022-12-27T16:42:15.693Z,8.08
2022-12-27T16:44:15.656Z,8.03
2022-12-27T16:46:15.697Z,7.99
2022-12-27T16:48:15.699Z,7.96
2022-12-27T16:50:15.995Z,7.85
2022-12-27T16:53:47.450Z,7.79
2022-12-27T16:55:47.516Z,7.73
2022-12-27T16:57:47.450Z,7.64
2022-12-27T16:59:47.487Z,7.52
2022-12-27T17:01:47.598Z,7.67
2022-12-27T17:03:47.460Z,7.64
2022-12-27T17:06:05.792Z,7.58
2022-12-27T17:09:06.956Z,7.48
2022-12-27T17:11:06.971Z,7.47
2022-12-27T17:13:06.988Z,7.35
2022-12-27T17:15:06.951Z,7.29
2022-12-27T17:17:06.986Z,7.29
2022-12-27T17:19:06.950Z,7.32
2022-12-27T17:21:06.967Z,7.3
2022-12-27T17:23:47.319Z,7.36
2022-12-27T17:25:47.205Z,7.11
2022-12-27T17:27:47.557Z,7.17
2022-12-27T17:29:47.265Z,7.17
2022-12-27T17:31:47.261Z,7.12
2022-12-27T17:33:47.182Z,7.05
2022-12-27T17:35:47.203Z,7.04
2022-12-27T17:38:37.707Z,7.11
2022-12-27T17:40:37.697Z,7.04
2022-12-27T17:42:37.637Z,6.97
2022-12-27T17:44:37.653Z,6.94
2022-12-27T17:46:37.863Z,7
2022-12-27T17:48:37.761Z,7.11
2022-12-27T17:50:37.628Z,7.12
2022-12-27T17:52:37.699Z,7.11
2022-12-27T17:53:56.725Z,7.09
2022-12-27T17:55:56.671Z,7.06
2022-12-27T17:57:56.728Z,7.05
2022-12-27T17:59:56.696Z,6.94
2022-12-27T18:01:56.835Z,6.99
2022-12-27T18:03:56.681Z,7.01
2022-12-27T18:05:56.758Z,7
2022-12-27T18:09:04.674Z,6.89
2022-12-27T18:11:04.492Z,6.91
2022-12-27T18:13:04.555Z,6.87
2022-12-27T18:15:04.783Z,6.8
2022-12-27T18:17:04.642Z,6.76
2022-12-27T18:19:04.523Z,6.81
2022-12-27T18:21:04.450Z,6.82
2022-12-27T18:24:03.789Z,6.82
2022-12-27T18:26:06.763Z,6.82
2022-12-27T18:28:03.751Z,6.78
2022-12-27T18:30:03.793Z,6.79
2022-12-27T18:32:03.849Z,6.71
2022-12-27T18:34:03.797Z,6.65
2022-12-27T18:36:03.830Z,6.65
2022-12-27T18:38:03.773Z,6.58
2022-12-27T18:39:59.755Z,6.55
2022-12-27T18:41:59.824Z,6.5
2022-12-27T18:43:59.789Z,6.47
2022-12-27T18:45:59.780Z,6.4
2022-12-27T18:47:59.869Z,6.41
2022-12-27T18:50:00.266Z,6.38
2022-12-27T18:51:59.742Z,6.36
2022-12-27T18:54:54.478Z,6.36
2022-12-27T18:56:54.557Z,6.39
2022-12-27T18:58:54.609Z,6.44
2022-12-27T19:00:54.640Z,6.43
2022-12-27T19:02:54.719Z,6.32
2022-12-27T19:04:54.507Z,6.3
2022-12-27T19:06:54.528Z,6.33
2022-12-27T19:09:41.714Z,6.29
2022-12-27T19:11:42.644Z,6.3
2022-12-27T19:13:41.697Z,6.32
2022-12-27T19:15:41.940Z,6.16
2022-12-27T19:17:41.699Z,6.28
2022-12-27T19:19:41.694Z,6.25
2022-12-27T19:21:41.707Z,6.21
2022-12-27T19:24:51.118Z,6.12
2022-12-27T19:26:51.158Z,6.08
2022-12-27T19:28:51.153Z,5.97
2022-12-27T19:30:51.174Z,5.87
2022-12-27T19:32:51.217Z,5.88
2022-12-27T19:34:51.136Z,5.8
2022-12-27T19:36:51.106Z,5.88
2022-12-27T19:40:21.848Z,5.85
2022-12-27T19:42:21.926Z,5.62
2022-12-27T19:44:21.829Z,5.66
2022-12-27T19:46:24.856Z,5.71
2022-12-27T19:48:21.774Z,5.64
2022-12-27T19:50:21.983Z,5.59
2022-12-27T19:52:21.841Z,5.49
2022-12-27T19:55:56.732Z,5.45
2022-12-27T19:57:57.046Z,5.42
2022-12-27T19:59:58.770Z,5.38
2022-12-27T20:01:56.870Z,5.38
2022-12-27T20:03:56.695Z,5.3
2022-12-27T20:06:12.257Z,5.29
2022-12-27T20:07:56.707Z,5.32
2022-12-27T20:10:59.616Z,5.34
2022-12-27T20:13:02.429Z,5.28
2022-12-27T20:14:59.926Z,5.26
2022-12-27T20:16:59.455Z,5.21
2022-12-27T20:18:59.478Z,5.04
2022-12-27T20:20:59.444Z,5.23
2022-12-27T20:22:59.612Z,5.19
2022-12-27T20:26:12.229Z,5.16
2022-12-27T20:28:12.194Z,5.21
2022-12-27T20:30:12.285Z,5.19
2022-12-27T20:32:12.247Z,5.23
2022-12-27T20:34:12.246Z,5.16
2022-12-27T20:36:12.175Z,5.14
2022-12-27T20:38:12.274Z,5.09
2022-12-27T20:40:58.246Z,4.88
2022-12-27T20:42:58.189Z,4.85
2022-12-27T20:44:58.192Z,4.84
2022-12-27T20:46:58.252Z,4.78
2022-12-27T20:48:58.209Z,4.93
2022-12-27T20:50:58.327Z,4.95
2022-12-27T20:52:58.203Z,4.96
2022-12-27T20:55:47.781Z,4.91
2022-12-27T20:57:47.834Z,4.88
2022-12-27T20:59:47.827Z,4.79
2022-12-27T21:01:51.673Z,4.77
2022-12-27T21:03:47.863Z,4.79
2022-12-27T21:05:47.821Z,4.67
2022-12-27T21:07:47.850Z,4.74
2022-12-27T21:11:25.208Z,4.82
2022-12-27T21:13:25.246Z,4.83
2022-12-27T21:15:25.234Z,4.77
2022-12-27T21:17:25.262Z,4.76
2022-12-27T21:19:25.340Z,4.79
2022-12-27T21:21:27.880Z,4.73
2022-12-27T21:23:25.203Z,4.79
2022-12-27T21:26:38.697Z,4.78
2022-12-27T21:28:38.745Z,4.75
2022-12-27T21:30:38.734Z,4.73
2022-12-27T21:32:38.776Z,4.72
2022-12-27T21:34:38.966Z,4.71
2022-12-27T21:36:38.471Z,4.76
2022-12-27T21:38:38.405Z,4.77
2022-12-27T21:41:12.127Z,4.72
2022-12-27T21:43:11.928Z,4.72
2022-12-27T21:45:12.016Z,4.7
2022-12-27T21:47:11.981Z,4.78
2022-12-27T21:49:12.159Z,4.63
2022-12-27T21:51:11.938Z,4.63
2022-12-27T21:53:11.948Z,4.61
2022-12-27T21:55:11.988Z,4.6
2022-12-27T21:56:43.912Z,4.62
2022-12-27T21:58:43.878Z,4.62
2022-12-27T22:00:43.903Z,4.61
2022-12-27T22:02:44.031Z,4.58
2022-12-27T22:04:43.884Z,4.58
2022-12-27T22:06:47.049Z,4.58
2022-12-27T22:08:43.947Z,4.58
2022-12-27T22:11:59.036Z,4.7
2022-12-27T22:13:59.081Z,4.67
2022-12-27T22:15:59.111Z,4.69
2022-12-27T22:17:59.025Z,4.85
2022-12-27T22:19:59.010Z,4.88
2022-12-27T22:21:59.190Z,4.92
2022-12-27T22:23:59.002Z,4.82
2022-12-27T22:26:54.294Z,4.84
2022-12-27T22:28:54.343Z,4.88
2022-12-27T22:30:54.449Z,4.88
2022-12-27T22:32:54.367Z,4.93
2022-12-27T22:34:54.266Z,4.91
2022-12-27T22:36:54.327Z,4.87
2022-12-27T22:38:54.316Z,4.77
2022-12-27T22:42:32.190Z,4.91
2022-12-27T22:44:32.306Z,4.92
2022-12-27T22:46:51.596Z,4.99
2022-12-27T22:48:32.158Z,4.98
2022-12-27T22:50:32.191Z,5
2022-12-27T22:52:32.179Z,5.02
2022-12-27T22:55:03.823Z,5
2022-12-27T22:57:08.061Z,5.01
2022-12-27T22:59:08.130Z,4.96
2022-12-27T23:01:08.097Z,5.04
2022-12-27T23:03:08.007Z,5.03
2022-12-27T23:05:08.014Z,5.19
2022-12-27T23:07:08.016Z,5.26
2022-12-27T23:09:08.025Z,5.26
2022-12-27T23:12:50.296Z,5.33
2022-12-27T23:14:50.328Z,5.39
2022-12-27T23:16:50.317Z,5.47
2022-12-27T23:18:50.349Z,5.44
2022-12-27T23:21:19.023Z,5.51
2022-12-27T23:22:50.296Z,5.4
2022-12-27T23:24:50.344Z,5.5
2022-12-27T23:27:29.598Z,5.54
2022-12-27T23:29:29.455Z,5.55
2022-12-27T23:31:29.735Z,5.55
2022-12-27T23:33:29.688Z,5.62
2022-12-27T23:35:29.733Z,5.63
2022-12-27T23:37:29.647Z,5.68
2022-12-27T23:39:29.879Z,5.67
2022-12-27T23:43:33.090Z,5.55
2022-12-27T23:45:06.295Z,5.69
2022-12-27T23:47:06.421Z,5.69
2022-12-27T23:49:06.304Z,5.72
2022-12-27T23:51:06.395Z,5.82
2022-12-27T23:53:06.332Z,5.75
2022-12-27T23:55:06.337Z,5.88
2022-12-27T23:57:50.298Z,5.66
2022-12-27T23:59:50.347Z,5.78
